Time;durP1;ratioP1;P1;durP2;ratioP2;P2;SDS_P1;SDS_P2;PMS_P1;PMS_P2;Temp;Humidity;BMP_temperature;BMP_pressure;BME280_temperature;BME280_humidity;BME280_pressure;Samples;Min_cycle;Max_cycle;Signal;HPM_P1;HPM_P2
2022/08/02 00:02:13;;;;;;;15.85;4.32;;;12.10;99.90;;;;;;5018143;28;20040;-69
2022/08/02 00:04:39;;;;;;;12.52;3.95;;;12.10;99.90;;;;;;5018689;28;20095;-68
2022/08/02 00:07:04;;;;;;;11.27;3.92;;;12.20;99.90;;;;;;5019152;28;20049;-68
2022/08/02 00:09:30;;;;;;;14.15;4.85;;;12.20;99.90;;;;;;5015887;28;20049;-69
2022/08/02 00:11:56;;;;;;;12.45;4.45;;;12.20;99.90;;;;;;5000094;28;20116;-67
2022/08/02 00:14:22;;;;;;;12.20;4.38;;;12.10;99.90;;;;;;4994144;28;20099;-68
2022/08/02 00:16:47;;;;;;;15.98;4.97;;;12.10;99.90;;;;;;5011270;28;20553;-68
2022/08/02 00:19:13;;;;;;;14.90;4.00;;;12.10;99.90;;;;;;5031012;28;20128;-70
2022/08/02 00:21:38;;;;;;;15.80;4.22;;;12.10;99.90;;;;;;5015415;28;20060;-68
2022/08/02 00:24:04;;;;;;;10.27;3.63;;;12.00;99.90;;;;;;5000066;28;20049;-68
2022/08/02 00:26:30;;;;;;;12.68;4.00;;;12.00;99.90;;;;;;5016530;28;20079;-68
2022/08/02 00:28:56;;;;;;;9.65;3.60;;;12.10;99.90;;;;;;5018567;28;20132;-68
2022/08/02 00:31:22;;;;;;;10.05;3.53;;;12.10;99.90;;;;;;5024168;28;20041;-68
2022/08/02 00:33:47;;;;;;;12.25;3.45;;;12.20;99.90;;;;;;5015258;28;20648;-67
2022/08/02 00:36:13;;;;;;;12.63;4.07;;;12.10;99.90;;;;;;5018306;28;20099;-68
2022/08/02 00:38:39;;;;;;;13.18;3.75;;;12.10;99.90;;;;;;4998007;28;20133;-67
2022/08/02 00:41:12;;;;;;;12.63;3.83;;;12.10;99.90;;;;;;5031989;28;20502;-67
2022/08/02 00:43:37;;;;;;;13.38;3.83;;;12.00;99.90;;;;;;5014280;28;20084;-68
2022/08/02 00:46:03;;;;;;;11.13;3.40;;;12.00;99.90;;;;;;5013210;28;20254;-69
2022/08/02 00:48:28;;;;;;;13.50;3.97;;;12.00;99.90;;;;;;5031733;28;20040;-69
2022/08/02 00:50:55;;;;;;;12.00;4.18;;;12.00;99.90;;;;;;5013157;28;20048;-68
2022/08/02 00:53:21;;;;;;;12.55;4.95;;;12.00;99.90;;;;;;5033132;28;20110;-69
2022/08/02 00:55:47;;;;;;;12.90;4.85;;;12.00;99.90;;;;;;4998781;28;20037;-68
2022/08/02 00:58:12;;;;;;;15.90;5.85;;;11.90;99.90;;;;;;5017818;28;20044;-69
2022/08/02 01:00:38;;;;;;;12.13;5.18;;;11.90;99.90;;;;;;5016938;28;20436;-68
2022/08/02 01:03:04;;;;;;;14.35;5.28;;;11.90;99.90;;;;;;5015036;28;20033;-68
2022/08/02 01:05:30;;;;;;;10.73;4.43;;;11.90;99.90;;;;;;5035233;28;20110;-69
2022/08/02 01:07:56;;;;;;;12.82;4.57;;;11.90;99.90;;;;;;5016943;28;20045;-69
2022/08/02 01:10:22;;;;;;;9.20;4.28;;;11.80;99.90;;;;;;5035569;28;20048;-68
2022/08/02 01:12:47;;;;;;;9.70;3.75;;;11.90;99.90;;;;;;5028034;28;20170;-69
2022/08/02 01:15:14;;;;;;;7.90;3.40;;;11.90;99.90;;;;;;5011675;28;20049;-69
2022/08/02 01:18:00;;;;;;;11.50;3.83;;;11.90;99.90;;;;;;5018719;28;20072;-68
2022/08/02 01:20:44;;;;;;;13.93;3.42;;;11.90;99.90;;;;;;5018009;28;20523;-68
2022/08/02 01:23:28;;;;;;;9.18;2.78;;;11.90;99.90;;;;;;5013542;28;21167;-67
2022/08/02 01:26:27;;;;;;;7.25;3.40;;;11.90;99.90;;;;;;5015733;28;20049;-67
2022/08/02 01:29:24;;;;;;;9.80;3.38;;;11.90;99.90;;;;;;5001402;28;20590;-69
2022/08/02 01:32:15;;;;;;;11.57;3.70;;;11.90;99.90;;;;;;5014566;28;20044;-69
2022/08/02 01:34:53;;;;;;;11.00;3.40;;;11.90;99.90;;;;;;5015567;28;20044;-69
2022/08/02 01:37:36;;;;;;;15.57;3.90;;;11.90;99.90;;;;;;5032996;28;20041;-68
2022/08/02 01:40:07;;;;;;;8.25;2.97;;;11.90;99.90;;;;;;5013903;28;20103;-68
2022/08/02 01:42:33;;;;;;;9.27;3.28;;;11.90;99.90;;;;;;4999406;28;20056;-69
2022/08/02 01:45:01;;;;;;;10.15;2.95;;;12.00;99.90;;;;;;5018245;28;20065;-68
2022/08/02 01:47:32;;;;;;;13.63;3.17;;;12.00;99.90;;;;;;5027323;28;20448;-68
2022/08/02 01:49:59;;;;;;;7.53;2.60;;;12.00;99.90;;;;;;5021275;28;20133;-69
2022/08/02 01:52:29;;;;;;;14.73;3.83;;;12.00;99.90;;;;;;5022700;28;20069;-68
2022/08/02 01:55:43;;;;;;;13.35;3.13;;;12.10;99.90;;;;;;5024551;28;20638;-69
2022/08/02 01:58:13;;;;;;;13.27;2.83;;;12.10;99.90;;;;;;4982279;28;20286;-68
2022/08/02 02:00:40;;;;;;;7.95;2.38;;;12.00;99.90;;;;;;5015677;28;20268;-70
2022/08/02 02:03:12;;;;;;;15.75;2.72;;;12.00;99.90;;;;;;5033122;28;20183;-70
2022/08/02 02:05:39;;;;;;;9.02;2.78;;;12.00;99.90;;;;;;5018761;28;20100;-69
2022/08/02 02:08:06;;;;;;;12.38;2.47;;;12.00;99.90;;;;;;5020018;28;20073;-68
2022/08/02 02:10:37;;;;;;;7.22;2.25;;;12.00;99.90;;;;;;5018592;28;20045;-68
2022/08/02 02:13:07;;;;;;;8.68;2.60;;;12.00;99.90;;;;;;5019255;28;20477;-69
2022/08/02 02:15:37;;;;;;;11.55;2.78;;;11.90;99.90;;;;;;5034530;28;20056;-69
2022/08/02 02:18:05;;;;;;;10.05;2.80;;;11.80;99.90;;;;;;5041324;28;20041;-69
2022/08/02 02:20:31;;;;;;;12.10;2.58;;;11.90;99.90;;;;;;5003049;28;20473;-68
2022/08/02 02:22:58;;;;;;;11.05;2.20;;;11.90;99.90;;;;;;5002262;28;20237;-69
2022/08/02 02:25:23;;;;;;;11.98;2.45;;;11.90;99.90;;;;;;5038829;28;20052;-68
2022/08/02 02:28:01;;;;;;;10.18;2.63;;;11.90;99.90;;;;;;5020656;28;20037;-67
2022/08/02 02:30:28;;;;;;;10.05;2.40;;;11.90;99.90;;;;;;5020919;28;20381;-69
2022/08/02 02:32:58;;;;;;;12.23;2.78;;;12.00;99.90;;;;;;5039336;28;20527;-68
2022/08/02 02:35:28;;;;;;;9.80;2.40;;;11.90;99.90;;;;;;5014944;28;20839;-69
2022/08/02 02:37:57;;;;;;;12.07;2.50;;;12.00;99.90;;;;;;5035748;28;20037;-68
2022/08/02 02:40:24;;;;;;;14.95;2.72;;;12.00;99.90;;;;;;5014824;28;20663;-68
2022/08/02 02:42:50;;;;;;;10.95;3.00;;;12.00;99.90;;;;;;5000534;28;20409;-69
2022/08/02 02:45:17;;;;;;;11.20;2.80;;;12.00;99.90;;;;;;5038206;28;20540;-68
2022/08/02 02:47:46;;;;;;;9.60;2.67;;;11.90;99.90;;;;;;5001327;28;20049;-68
2022/08/02 02:50:11;;;;;;;13.07;3.20;;;11.90;99.90;;;;;;5037017;28;20044;-68
2022/08/02 02:52:41;;;;;;;9.60;2.67;;;11.90;99.90;;;;;;5037670;28;20055;-68
2022/08/02 02:55:08;;;;;;;10.40;2.80;;;11.90;99.90;;;;;;5018715;28;20533;-69
2022/08/02 02:57:36;;;;;;;13.20;2.83;;;11.90;99.90;;;;;;5017711;28;20061;-68
2022/08/02 03:00:12;;;;;;;13.20;2.78;;;11.90;99.90;;;;;;5024666;28;20090;-69
2022/08/02 03:02:39;;;;;;;11.30;2.67;;;11.90;99.90;;;;;;5035548;28;20136;-68
2022/08/02 03:05:09;;;;;;;10.00;2.75;;;12.00;99.90;;;;;;4993642;28;20043;-68
2022/08/02 03:07:35;;;;;;;11.48;2.75;;;12.00;99.90;;;;;;5034697;28;20049;-69
2022/08/02 03:10:06;;;;;;;7.95;2.60;;;12.00;99.90;;;;;;5017232;28;20037;-69
2022/08/02 03:12:33;;;;;;;10.10;3.08;;;12.00;99.90;;;;;;5013237;28;20041;-69
2022/08/02 03:15:02;;;;;;;10.02;3.17;;;12.10;99.90;;;;;;5035555;28;20425;-68
2022/08/02 03:17:43;;;;;;;9.18;3.38;;;12.10;99.90;;;;;;5020454;28;20041;-68
2022/08/02 03:20:11;;;;;;;12.50;3.17;;;12.00;99.90;;;;;;5013806;28;20119;-68
2022/08/02 03:22:37;;;;;;;11.55;3.30;;;12.00;99.90;;;;;;5038086;28;20064;-69
2022/08/02 03:25:03;;;;;;;12.38;3.40;;;12.10;99.90;;;;;;5013247;28;20885;-68
2022/08/02 03:27:29;;;;;;;9.48;2.85;;;12.10;99.90;;;;;;5039919;28;20102;-68
2022/08/02 03:29:55;;;;;;;11.68;3.25;;;12.10;99.90;;;;;;5014547;28;20056;-68
2022/08/02 03:32:20;;;;;;;15.00;3.55;;;12.00;99.90;;;;;;5019697;28;20044;-68
2022/08/02 03:34:46;;;;;;;11.68;3.47;;;12.10;99.90;;;;;;5037778;28;20256;-68
2022/08/02 03:37:12;;;;;;;14.77;3.90;;;12.10;99.90;;;;;;5036344;28;20645;-68
2022/08/02 03:39:38;;;;;;;11.32;3.75;;;12.10;99.90;;;;;;5017037;28;20843;-68
2022/08/02 03:42:04;;;;;;;12.57;3.97;;;12.10;99.90;;;;;;5003403;28;20041;-67
2022/08/02 03:44:30;;;;;;;12.05;4.07;;;12.10;99.90;;;;;;5033673;28;20048;-70
2022/08/02 03:46:57;;;;;;;11.02;3.92;;;12.00;99.90;;;;;;5020450;28;20075;-68
2022/08/02 03:49:23;;;;;;;13.27;3.95;;;12.10;99.90;;;;;;5036510;28;20051;-69
2022/08/02 03:51:49;;;;;;;11.27;3.58;;;12.10;99.90;;;;;;5034845;28;20044;-68
2022/08/02 03:54:17;;;;;;;11.50;3.42;;;12.00;99.90;;;;;;5017594;28;20086;-70
2022/08/02 03:56:43;;;;;;;12.13;3.55;;;12.10;99.90;;;;;;5004625;28;20076;-69
2022/08/02 03:59:13;;;;;;;15.63;3.70;;;12.10;99.90;;;;;;5012270;28;20132;-69
2022/08/02 04:01:39;;;;;;;13.52;3.53;;;12.20;99.90;;;;;;5001632;28;20190;-69
2022/08/02 04:04:06;;;;;;;11.60;3.70;;;12.20;99.90;;;;;;5005833;28;20676;-69
2022/08/02 04:06:32;;;;;;;10.48;3.65;;;12.20;99.90;;;;;;5014990;28;20044;-68
2022/08/02 04:08:58;;;;;;;13.40;4.22;;;12.20;99.90;;;;;;5035601;28;20052;-68
2022/08/02 04:11:30;;;;;;;13.98;3.95;;;12.30;99.90;;;;;;5014114;28;20044;-69
2022/08/02 04:14:04;;;;;;;11.10;4.07;;;12.30;99.90;;;;;;4996830;28;20191;-68
2022/08/02 04:16:45;;;;;;;13.50;4.57;;;12.30;99.90;;;;;;5032614;28;20061;-69
2022/08/02 04:19:34;;;;;;;14.20;3.65;;;12.30;99.90;;;;;;5036191;28;20332;-69
2022/08/02 04:22:03;;;;;;;10.77;3.58;;;12.30;99.90;;;;;;5019794;28;20049;-69
2022/08/02 04:24:36;;;;;;;12.88;3.85;;;12.30;99.90;;;;;;4984651;28;20143;-68
2022/08/02 04:27:03;;;;;;;12.93;4.18;;;12.40;99.90;;;;;;5034764;28;20036;-69
2022/08/02 04:29:30;;;;;;;12.13;3.88;;;12.40;99.90;;;;;;5033829;28;20036;-69
2022/08/02 04:31:56;;;;;;;11.00;3.25;;;12.40;99.90;;;;;;5015357;28;20044;-69
2022/08/02 04:34:22;;;;;;;15.70;4.25;;;12.50;99.90;;;;;;5018489;28;20767;-68
2022/08/02 04:36:48;;;;;;;11.30;3.88;;;12.50;99.90;;;;;;5002578;28;20126;-68
2022/08/02 04:39:14;;;;;;;10.93;3.67;;;12.50;99.90;;;;;;5014325;28;20477;-69
2022/08/02 04:41:42;;;;;;;13.23;4.10;;;12.50;99.90;;;;;;5035990;28;20094;-68
2022/08/02 04:44:08;;;;;;;10.43;4.00;;;12.60;99.90;;;;;;5025783;28;20036;-67
2022/08/02 04:46:37;;;;;;;10.25;3.85;;;12.60;99.90;;;;;;5017755;28;20051;-68
2022/08/02 04:49:03;;;;;;;13.05;3.53;;;12.60;99.90;;;;;;5029997;28;20120;-68
2022/08/02 04:51:28;;;;;;;10.80;3.92;;;12.70;99.90;;;;;;5030095;28;20826;-68
2022/08/02 04:53:54;;;;;;;17.25;4.63;;;12.70;99.90;;;;;;5032831;28;20105;-68
2022/08/02 04:56:20;;;;;;;10.02;4.28;;;12.70;99.90;;;;;;5034226;28;20041;-66
2022/08/02 04:58:46;;;;;;;14.30;4.40;;;12.70;99.90;;;;;;5031681;28;20041;-69
2022/08/02 05:01:11;;;;;;;16.15;4.50;;;12.80;99.90;;;;;;4997658;28;20041;-67
2022/08/02 05:03:37;;;;;;;13.00;4.55;;;12.90;99.90;;;;;;5036312;28;20044;-69
2022/08/02 05:06:03;;;;;;;10.80;4.00;;;12.90;99.90;;;;;;5038225;28;20106;-66
2022/08/02 05:08:28;;;;;;;9.85;4.15;;;13.00;99.90;;;;;;5034238;28;20712;-68
2022/08/02 05:10:54;;;;;;;12.52;3.88;;;13.00;99.90;;;;;;5035545;28;20053;-68
2022/08/02 05:13:20;;;;;;;14.07;4.22;;;13.10;99.90;;;;;;5037859;28;20036;-69
2022/08/02 05:15:51;;;;;;;8.00;3.58;;;13.10;99.90;;;;;;5036291;28;20724;-68
2022/08/02 05:18:17;;;;;;;11.98;4.20;;;13.10;99.90;;;;;;5042360;28;20045;-69
2022/08/02 05:20:43;;;;;;;10.18;3.85;;;13.20;99.90;;;;;;5034935;28;20098;-68
2022/08/02 05:23:09;;;;;;;13.43;4.05;;;13.30;99.90;;;;;;5031117;28;20090;-68
2022/08/02 05:25:34;;;;;;;15.68;4.20;;;13.40;99.90;;;;;;5035626;28;20045;-69
2022/08/02 05:28:00;;;;;;;12.05;4.32;;;13.40;99.90;;;;;;5032785;28;20051;-68
2022/08/02 05:30:25;;;;;;;11.73;3.53;;;13.50;99.90;;;;;;5034325;28;20053;-68
2022/08/02 05:32:51;;;;;;;13.07;4.18;;;13.70;99.90;;;;;;5017210;28;20600;-68
2022/08/02 05:35:19;;;;;;;13.55;3.97;;;13.70;99.90;;;;;;5018906;28;20053;-66
2022/08/02 05:37:45;;;;;;;12.07;3.60;;;13.80;99.90;;;;;;4997154;28;20045;-69
2022/08/02 05:40:10;;;;;;;11.45;4.10;;;14.10;99.90;;;;;;4991264;28;20716;-67
2022/08/02 05:42:36;;;;;;;9.57;3.72;;;14.40;99.90;;;;;;5035861;28;20049;-68
2022/08/02 05:45:03;;;;;;;7.00;2.85;;;14.80;99.90;;;;;;5011575;28;20049;-69
2022/08/02 05:47:29;;;;;;;12.88;3.67;;;15.10;99.90;;;;;;4997212;28;20116;-68
2022/08/02 05:49:55;;;;;;;10.55;3.75;;;15.20;99.90;;;;;;5021382;28;20458;-68
2022/08/02 05:52:24;;;;;;;8.52;2.85;;;15.40;99.90;;;;;;5034784;28;20033;-69
2022/08/02 05:55:00;;;;;;;14.93;3.20;;;15.50;99.90;;;;;;5035981;28;20033;-68
2022/08/02 05:57:42;;;;;;;10.85;3.00;;;15.70;99.90;;;;;;5017645;28;20040;-67
2022/08/02 06:00:13;;;;;;;13.00;3.50;;;15.90;99.90;;;;;;5031382;28;20045;-68
2022/08/02 06:02:41;;;;;;;8.43;2.95;;;15.90;99.90;;;;;;5000836;28;20479;-68
2022/08/02 06:05:11;;;;;;;12.27;3.42;;;16.00;99.90;;;;;;5043795;28;20257;-67
2022/08/02 06:07:40;;;;;;;8.20;2.53;;;16.30;99.90;;;;;;5040333;28;20052;-68
2022/08/02 06:10:08;;;;;;;11.00;4.07;;;16.50;99.90;;;;;;5033214;28;20475;-69
2022/08/02 06:12:44;;;;;;;8.40;3.05;;;16.60;99.90;;;;;;5036612;28;20483;-69
2022/08/02 06:15:13;;;;;;;10.23;3.30;;;16.60;99.90;;;;;;5001779;28;20053;-68
2022/08/02 06:17:40;;;;;;;9.05;2.85;;;16.60;99.90;;;;;;5039137;28;20037;-68
2022/08/02 06:20:07;;;;;;;10.88;3.30;;;16.50;99.90;;;;;;5021450;28;20326;-68
2022/08/02 06:22:34;;;;;;;8.75;2.88;;;16.30;99.90;;;;;;5038471;28;20771;-67
2022/08/02 06:25:01;;;;;;;10.63;3.03;;;16.20;99.90;;;;;;5037064;28;20114;-68
2022/08/02 06:27:27;;;;;;;14.93;3.60;;;16.30;99.90;;;;;;5038933;28;20496;-68
2022/08/02 06:29:54;;;;;;;7.72;2.80;;;16.50;99.90;;;;;;5020791;28;20130;-69
2022/08/02 06:32:20;;;;;;;8.73;2.88;;;16.80;99.90;;;;;;5040389;28;20041;-69
2022/08/02 06:34:46;;;;;;;6.88;2.65;;;17.00;99.90;;;;;;5025217;28;20191;-69
2022/08/02 06:37:40;;;;;;;9.27;2.70;;;17.40;99.90;;;;;;5041317;28;20746;-68
2022/08/02 06:40:25;;;;;;;9.45;2.40;;;17.50;99.90;;;;;;5021632;28;20048;-69
2022/08/02 06:42:56;;;;;;;6.22;2.10;;;17.50;99.90;;;;;;5040378;28;20528;-70
2022/08/02 06:45:21;;;;;;;10.85;2.60;;;17.50;99.90;;;;;;5039412;28;20054;-69
2022/08/02 06:47:47;;;;;;;8.63;2.55;;;17.60;99.90;;;;;;5023767;28;20028;-69
2022/08/02 06:50:13;;;;;;;6.35;2.10;;;17.60;99.90;;;;;;5041767;28;20070;-69
2022/08/02 06:52:39;;;;;;;9.77;2.63;;;17.70;99.90;;;;;;5040640;28;20051;-70
2022/08/02 06:55:05;;;;;;;9.95;2.47;;;17.80;99.90;;;;;;5042706;28;20045;-70
2022/08/02 06:57:32;;;;;;;9.45;2.20;;;18.00;99.90;;;;;;5024911;28;20114;-69
2022/08/02 07:00:03;;;;;;;11.07;2.67;;;18.30;99.90;;;;;;5040630;28;20041;-67
2022/08/02 07:02:30;;;;;;;7.68;1.90;;;18.40;99.90;;;;;;5042019;28;20737;-68
2022/08/02 07:04:55;;;;;;;6.85;1.80;;;18.50;99.90;;;;;;5005435;28;20053;-68
2022/08/02 07:07:21;;;;;;;6.95;1.75;;;18.50;99.90;;;;;;5042923;28;20126;-69
2022/08/02 07:09:47;;;;;;;7.93;1.83;;;18.50;99.90;;;;;;5025289;28;20072;-68
2022/08/02 07:12:12;;;;;;;13.35;2.20;;;18.60;99.90;;;;;;5025094;28;20725;-67
2022/08/02 07:14:38;;;;;;;8.00;1.88;;;18.70;99.90;;;;;;5037463;28;20080;-68
2022/08/02 07:17:04;;;;;;;9.40;1.88;;;18.90;99.90;;;;;;5051716;28;20052;-69
2022/08/02 07:19:30;;;;;;;9.10;1.77;;;19.10;99.90;;;;;;5038274;28;20052;-68
2022/08/02 07:21:55;;;;;;;9.80;1.98;;;19.30;99.90;;;;;;5037412;28;20053;-69
2022/08/02 07:24:21;;;;;;;7.75;1.63;;;19.50;99.90;;;;;;5027291;28;20139;-68
2022/08/02 07:26:47;;;;;;;8.10;1.50;;;19.60;99.90;;;;;;5041984;28;20045;-69
2022/08/02 07:29:12;;;;;;;8.63;1.70;;;19.60;99.90;;;;;;5055203;28;20379;-69
2022/08/02 07:31:38;;;;;;;7.00;1.33;;;19.50;99.90;;;;;;5013469;28;20115;-69
2022/08/02 07:34:04;;;;;;;7.53;1.63;;;19.70;99.90;;;;;;5001493;28;20052;-68
2022/08/02 07:36:29;;;;;;;7.05;1.23;;;20.00;99.90;;;;;;5036370;28;20128;-70
2022/08/02 07:38:56;;;;;;;6.93;1.27;;;20.20;99.90;;;;;;5036863;28;20048;-69
2022/08/02 07:41:22;;;;;;;6.57;1.20;;;20.50;99.90;;;;;;5019579;28;20126;-68
2022/08/02 07:43:48;;;;;;;6.63;1.00;;;20.60;99.90;;;;;;5002023;28;20481;-67
2022/08/02 07:46:13;;;;;;;6.55;1.58;;;20.60;99.90;;;;;;5041729;28;20094;-68
2022/08/02 07:48:39;;;;;;;6.20;0.77;;;20.60;99.90;;;;;;5036380;28;20071;-68
2022/08/02 07:51:05;;;;;;;5.90;1.13;;;20.60;99.90;;;;;;5033580;28;20045;-68
2022/08/02 07:53:30;;;;;;;5.55;0.80;;;20.80;99.90;;;;;;5041211;28;20059;-68
2022/08/02 07:55:56;;;;;;;4.35;0.80;;;21.00;99.90;;;;;;5036006;28;20134;-69
2022/08/02 07:58:22;;;;;;;7.10;1.00;;;21.20;99.90;;;;;;5053195;28;20213;-68
2022/08/02 08:00:47;;;;;;;5.75;0.70;;;21.30;99.90;;;;;;5046764;28;20548;-68
2022/08/02 08:03:13;;;;;;;5.82;0.80;;;21.40;99.90;;;;;;5015518;28;20048;-68
2022/08/02 08:05:39;;;;;;;7.20;0.82;;;21.10;99.90;;;;;;5033100;28;20041;-67
2022/08/02 08:08:05;;;;;;;8.38;0.70;;;21.30;99.90;;;;;;5034763;28;20040;-68
2022/08/02 08:10:31;;;;;;;4.88;0.50;;;21.60;99.90;;;;;;5038085;28;20047;-68
2022/08/02 08:12:57;;;;;;;4.47;0.50;;;21.80;99.90;;;;;;5002754;28;20460;-68
2022/08/02 08:15:23;;;;;;;3.85;0.40;;;21.80;99.90;;;;;;5052369;28;20155;-69
2022/08/02 08:17:48;;;;;;;3.28;0.60;;;22.10;99.90;;;;;;5034325;28;20457;-68
2022/08/02 08:20:14;;;;;;;4.07;0.40;;;22.30;99.90;;;;;;5027137;28;20240;-68
2022/08/02 08:22:40;;;;;;;4.82;0.50;;;22.40;99.90;;;;;;5050869;28;20067;-69
2022/08/02 08:25:05;;;;;;;7.20;0.60;;;22.60;99.90;;;;;;5050219;28;20447;-68
2022/08/02 08:27:31;;;;;;;4.53;0.50;;;22.80;99.90;;;;;;5033995;28;20053;-69
2022/08/02 08:29:57;;;;;;;6.70;0.50;;;22.70;99.90;;;;;;5005039;28;20446;-67
2022/08/02 08:32:22;;;;;;;4.40;0.40;;;23.20;99.90;;;;;;5038457;28;20048;-67
2022/08/02 08:34:50;;;;;;;5.53;0.40;;;23.50;99.90;;;;;;5025668;28;21009;-69
2022/08/02 08:37:15;;;;;;;2.30;0.38;;;23.50;99.90;;;;;;5045617;28;20469;-69
2022/08/02 08:39:41;;;;;;;3.40;0.40;;;23.70;99.90;;;;;;5013901;28;20488;-68
2022/08/02 08:42:07;;;;;;;4.03;0.50;;;23.60;99.90;;;;;;5029245;28;20040;-67
2022/08/02 08:44:36;;;;;;;3.47;0.30;;;23.60;99.90;;;;;;5049487;28;20094;-68
2022/08/02 08:47:04;;;;;;;3.60;0.30;;;23.50;99.90;;;;;;5018931;28;20495;-68
2022/08/02 08:49:40;;;;;;;2.95;0.30;;;23.50;99.90;;;;;;4997554;28;20051;-69
2022/08/02 08:52:06;;;;;;;1.83;0.30;;;23.50;98.50;;;;;;5051160;28;20040;-70
2022/08/02 08:54:34;;;;;;;3.67;0.35;;;23.60;99.90;;;;;;4999811;28;20053;-68
2022/08/02 08:57:02;;;;;;;5.47;0.25;;;23.60;98.80;;;;;;5033926;28;20627;-70
2022/08/02 08:59:30;;;;;;;1.20;0.25;;;23.40;98.10;;;;;;5032210;28;20255;-68
2022/08/02 09:01:56;;;;;;;1.73;0.20;;;23.40;97.50;;;;;;5037063;28;20041;-68
2022/08/02 09:04:22;;;;;;;1.52;0.30;;;23.60;98.80;;;;;;5032507;28;20307;-68
2022/08/02 09:06:48;;;;;;;5.68;0.30;;;23.80;95.60;;;;;;5049787;28;20083;-68
2022/08/02 09:09:13;;;;;;;2.17;0.40;;;24.10;97.30;;;;;;5042323;28;20128;-68
2022/08/02 09:11:39;;;;;;;3.05;0.30;;;24.40;95.20;;;;;;5011507;28;20552;-69
2022/08/02 09:14:05;;;;;;;1.83;0.30;;;24.50;96.00;;;;;;5010865;28;20467;-69
2022/08/02 09:16:42;;;;;;;2.13;0.30;;;24.60;92.20;;;;;;5037267;28;20047;-69
2022/08/02 09:19:21;;;;;;;2.63;0.30;;;24.50;91.30;;;;;;5012021;28;20142;-68
2022/08/02 09:22:00;;;;;;;1.55;0.25;;;24.20;89.40;;;;;;5045681;28;20516;-68
2022/08/02 09:24:26;;;;;;;3.83;0.30;;;24.10;91.70;;;;;;5048199;28;20151;-68
2022/08/02 09:26:52;;;;;;;3.75;0.30;;;24.30;89.60;;;;;;5047844;28;20181;-69
2022/08/02 09:29:21;;;;;;;1.30;0.30;;;24.40;90.50;;;;;;5048475;28;20074;-68
2022/08/02 09:31:48;;;;;;;1.33;0.30;;;24.80;88.80;;;;;;5045640;28;20055;-69
2022/08/02 09:34:14;;;;;;;3.13;0.35;;;24.80;86.10;;;;;;5024525;28;20044;-69
2022/08/02 09:36:42;;;;;;;2.38;0.35;;;24.90;85.40;;;;;;5033301;28;20392;-68
2022/08/02 09:39:11;;;;;;;1.70;0.30;;;25.00;84.90;;;;;;5041384;28;20052;-69
2022/08/02 09:41:41;;;;;;;6.10;0.40;;;25.30;84.70;;;;;;5019241;28;20063;-70
2022/08/02 09:44:12;;;;;;;2.53;0.20;;;25.20;83.90;;;;;;5040858;28;20043;-69
2022/08/02 09:46:41;;;;;;;1.55;0.20;;;25.10;84.00;;;;;;5052148;28;20047;-68
2022/08/02 09:49:07;;;;;;;1.48;0.20;;;25.10;79.30;;;;;;5050333;28;20044;-69
2022/08/02 09:51:39;;;;;;;2.97;0.30;;;24.90;75.60;;;;;;5044533;28;20057;-70
2022/08/02 09:54:10;;;;;;;0.75;0.20;;;24.70;76.00;;;;;;5032576;28;20371;-69
2022/08/02 09:56:43;;;;;;;3.60;0.20;;;24.40;76.60;;;;;;5036854;28;20046;-70
2022/08/02 09:59:10;;;;;;;2.85;0.30;;;24.30;77.30;;;;;;5019392;28;20136;-70
2022/08/02 10:01:37;;;;;;;1.83;0.20;;;24.20;80.20;;;;;;5052580;28;20690;-69
2022/08/02 10:04:09;;;;;;;1.70;0.20;;;24.20;81.70;;;;;;5017792;28;20052;-69
2022/08/02 10:06:35;;;;;;;1.45;0.22;;;24.30;80.50;;;;;;5021034;28;20041;-68
2022/08/02 10:09:01;;;;;;;2.03;0.28;;;24.60;80.50;;;;;;5033104;28;20050;-69
2022/08/02 10:11:28;;;;;;;2.00;0.20;;;25.00;82.00;;;;;;5046352;28;20443;-69
2022/08/02 10:13:54;;;;;;;3.40;0.20;;;25.10;76.60;;;;;;5030224;28;20065;-70
2022/08/02 10:16:24;;;;;;;2.25;0.20;;;25.30;75.30;;;;;;5036900;28;20053;-69
2022/08/02 10:18:55;;;;;;;2.95;0.30;;;25.50;78.10;;;;;;5019545;28;20037;-68
2022/08/02 10:21:31;;;;;;;4.75;0.30;;;26.00;72.70;;;;;;5020408;28;20044;-69
2022/08/02 10:24:09;;;;;;;1.67;0.20;;;26.00;70.70;;;;;;5040583;28;20092;-68
2022/08/02 10:26:38;;;;;;;1.20;0.30;;;26.20;70.90;;;;;;5033500;28;20107;-68
2022/08/02 10:29:04;;;;;;;2.70;0.30;;;26.20;68.10;;;;;;5044950;28;20534;-68
2022/08/02 10:31:39;;;;;;;2.33;0.30;;;26.30;70.40;;;;;;5047180;28;20139;-68
2022/08/02 10:34:09;;;;;;;1.15;0.20;;;26.30;71.20;;;;;;5042236;28;20056;-69
2022/08/02 10:36:37;;;;;;;2.72;0.20;;;26.70;71.80;;;;;;5033053;28;20036;-69
2022/08/02 10:39:04;;;;;;;3.45;0.30;;;27.20;71.10;;;;;;5051337;28;20087;-69
2022/08/02 10:41:50;;;;;;;2.35;0.30;;;27.10;68.80;;;;;;5050665;28;21059;-69
2022/08/02 10:44:26;;;;;;;1.83;0.20;;;27.00;69.00;;;;;;5032739;28;20053;-69
2022/08/02 10:47:12;;;;;;;2.65;0.30;;;26.80;72.20;;;;;;5051137;28;20134;-70
2022/08/02 10:49:49;;;;;;;3.45;0.40;;;26.90;71.00;;;;;;5049667;28;20089;-70
2022/08/02 10:52:15;;;;;;;3.97;0.40;;;27.10;72.10;;;;;;5015898;28;20059;-69
2022/08/02 10:54:46;;;;;;;2.40;0.30;;;27.20;70.00;;;;;;5050853;28;20055;-71
2022/08/02 10:57:24;;;;;;;1.45;0.25;;;27.10;70.30;;;;;;5050531;28;20573;-71
2022/08/02 10:59:55;;;;;;;2.25;0.30;;;27.30;71.00;;;;;;5050986;28;20041;-69
2022/08/02 11:02:43;;;;;;;2.13;0.30;;;27.60;70.70;;;;;;5050127;28;20496;-69
2022/08/02 11:05:14;;;;;;;2.70;0.30;;;27.60;72.40;;;;;;5032933;28;20044;-69
2022/08/02 11:07:43;;;;;;;1.75;0.30;;;27.50;71.00;;;;;;5050313;28;20032;-70
2022/08/02 11:10:29;;;;;;;2.13;0.40;;;27.30;72.30;;;;;;5038968;28;20131;-68
2022/08/02 11:13:15;;;;;;;4.13;0.43;;;27.40;75.00;;;;;;5026026;28;20045;-69
2022/08/02 11:15:57;;;;;;;5.13;0.45;;;27.60;75.60;;;;;;5013211;28;20057;-69
2022/08/02 11:18:49;;;;;;;4.63;0.55;;;27.70;73.80;;;;;;5037184;28;20135;-69
2022/08/02 11:21:27;;;;;;;2.80;0.40;;;28.20;74.00;;;;;;5033765;28;20613;-70
2022/08/02 11:23:53;;;;;;;1.60;0.30;;;28.50;76.50;;;;;;5051070;28;20498;-71
2022/08/02 11:26:31;;;;;;;2.10;0.40;;;28.60;75.00;;;;;;5018011;28;20041;-70
2022/08/02 11:28:59;;;;;;;2.08;0.70;;;28.40;71.50;;;;;;5030992;28;20169;-69
2022/08/02 11:31:25;;;;;;;3.30;0.52;;;28.10;72.30;;;;;;5038815;28;20105;-70
2022/08/02 11:33:51;;;;;;;2.15;0.63;;;28.10;75.00;;;;;;5039492;28;20332;-72
2022/08/02 11:36:17;;;;;;;4.00;0.52;;;28.00;77.10;;;;;;5031424;28;20049;-70
2022/08/02 11:38:44;;;;;;;3.03;0.60;;;27.90;74.70;;;;;;5031806;28;20444;-68
2022/08/02 11:41:18;;;;;;;2.30;0.60;;;27.90;75.70;;;;;;5034175;28;20428;-69
2022/08/02 11:43:44;;;;;;;1.90;0.63;;;28.00;73.70;;;;;;5031658;28;20599;-70
2022/08/02 11:46:14;;;;;;;2.85;0.50;;;28.00;75.80;;;;;;5039641;28;20131;-69
2022/08/02 11:48:41;;;;;;;2.55;0.50;;;28.20;77.60;;;;;;5031569;28;20040;-69
2022/08/02 11:51:09;;;;;;;6.70;0.57;;;28.20;77.00;;;;;;5013606;28;20103;-70
2022/08/02 11:53:56;;;;;;;2.97;0.70;;;28.20;79.40;;;;;;5030464;28;20530;-70
2022/08/02 11:56:28;;;;;;;2.53;0.70;;;28.30;72.40;;;;;;5030322;28;20492;-69
2022/08/02 11:59:20;;;;;;;1.80;0.70;;;28.00;73.80;;;;;;5023356;28;20268;-71
2022/08/02 12:01:46;;;;;;;5.72;0.70;;;27.80;78.20;;;;;;5047423;28;20105;-70
2022/08/02 12:04:16;;;;;;;2.28;0.60;;;27.50;80.70;;;;;;5049537;28;20044;-70
2022/08/02 12:06:43;;;;;;;3.85;0.90;;;27.50;82.20;;;;;;5018489;28;20048;-70
2022/08/02 12:09:12;;;;;;;4.13;0.60;;;27.30;81.70;;;;;;5049807;28;20682;-70
2022/08/02 12:11:38;;;;;;;3.92;0.60;;;27.20;88.70;;;;;;5048873;28;20056;-69
2022/08/02 12:14:05;;;;;;;2.45;0.50;;;27.20;85.20;;;;;;5043847;28;20187;-70
2022/08/02 12:19:22;;;;;;;3.08;0.50;;;27.30;83.60;;;;;;5010237;28;20491;-69
2022/08/02 12:22:11;;;;;;;3.13;0.52;;;27.40;84.60;;;;;;5035654;28;20056;-73
2022/08/02 12:24:37;;;;;;;1.73;0.55;;;27.80;85.50;;;;;;5035731;28;20033;-68
2022/08/02 12:27:03;;;;;;;2.13;0.80;;;27.80;84.00;;;;;;5038842;28;20084;-70
2022/08/02 12:29:30;;;;;;;4.45;0.57;;;27.40;84.90;;;;;;5048863;28;20125;-68
2022/08/02 12:31:56;;;;;;;3.13;0.63;;;27.10;87.90;;;;;;5042161;28;20048;-70
2022/08/02 12:34:23;;;;;;;3.13;0.90;;;27.00;90.70;;;;;;5032950;28;20066;-70
2022/08/02 12:37:05;;;;;;;2.08;0.60;;;26.80;90.40;;;;;;5012917;28;20068;-71
2022/08/02 12:39:43;;;;;;;1.75;0.60;;;26.70;91.60;;;;;;4995375;28;20041;-68
2022/08/02 12:42:12;;;;;;;3.42;0.60;;;26.60;91.60;;;;;;4995043;28;20480;-69
2022/08/02 12:44:58;;;;;;;2.95;0.60;;;26.50;94.70;;;;;;5040671;28;20091;-69
2022/08/02 12:47:24;;;;;;;2.67;1.00;;;26.50;95.90;;;;;;5044149;28;20583;-71
2022/08/02 12:50:12;;;;;;;4.07;0.73;;;26.50;94.90;;;;;;4998490;28;20071;-69
2022/08/02 12:52:38;;;;;;;2.25;0.80;;;26.60;95.20;;;;;;5036895;28;20538;-69
2022/08/02 12:55:22;;;;;;;3.47;0.60;;;26.60;95.80;;;;;;5046088;28;20037;-70
2022/08/02 12:57:52;;;;;;;3.53;0.52;;;26.60;96.30;;;;;;5042773;28;20048;-71